sensor_id;sensor_type;location;lat;lon;timestamp;pressure;altitude;pressure_sealevel;temperature;humidity
41898;BME280;27576;53.366;-1.498;2022-11-20T00:01:11;99617.44;;;5.90;100.00
41898;BME280;27576;53.366;-1.498;2022-11-20T00:03:37;99609.59;;;5.84;100.00
41898;BME280;27576;53.366;-1.498;2022-11-20T00:06:06;99614.00;;;5.89;100.00
41898;BME280;27576;53.366;-1.498;2022-11-20T00:08:32;99571.59;;;5.69;100.00
41898;BME280;27576;53.366;-1.498;2022-11-20T00:10:57;99592.38;;;5.80;100.00
41898;BME280;27576;53.366;-1.498;2022-11-20T00:13:26;99592.44;;;5.84;100.00
41898;BME280;27576;53.366;-1.498;2022-11-20T00:15:57;99596.72;;;5.84;100.00
41898;BME280;27576;53.366;-1.498;2022-11-20T00:18:22;99590.78;;;5.86;100.00
41898;BME280;27576;53.366;-1.498;2022-11-20T00:20:48;99568.16;;;5.67;100.00
41898;BME280;27576;53.366;-1.498;2022-11-20T00:23:13;99589.88;;;5.84;100.00
41898;BME280;27576;53.366;-1.498;2022-11-20T00:25:38;99569.00;;;5.66;100.00
41898;BME280;27576;53.366;-1.498;2022-11-20T00:28:04;99557.72;;;5.59;100.00
41898;BME280;27576;53.366;-1.498;2022-11-20T00:30:29;99556.13;;;5.66;100.00
41898;BME280;27576;53.366;-1.498;2022-11-20T00:32:56;99554.38;;;5.65;100.00
41898;BME280;27576;53.366;-1.498;2022-11-20T00:35:22;99545.81;;;5.64;100.00
41898;BME280;27576;53.366;-1.498;2022-11-20T00:37:47;99559.00;;;5.83;100.00
41898;BME280;27576;53.366;-1.498;2022-11-20T00:40:12;99558.16;;;5.82;100.00
41898;BME280;27576;53.366;-1.498;2022-11-20T00:42:38;99545.28;;;5.82;100.00
41898;BME280;27576;53.366;-1.498;2022-11-20T00:45:03;99526.09;;;5.65;100.00
41898;BME280;27576;53.366;-1.498;2022-11-20T00:47:29;99552.16;;;5.82;100.00
41898;BME280;27576;53.366;-1.498;2022-11-20T00:49:54;99546.94;;;5.79;100.00
41898;BME280;27576;53.366;-1.498;2022-11-20T00:52:19;99539.94;;;5.72;100.00
41898;BME280;27576;53.366;-1.498;2022-11-20T00:54:45;99537.47;;;5.76;100.00
41898;BME280;27576;53.366;-1.498;2022-11-20T00:57:10;99531.44;;;5.74;100.00
41898;BME280;27576;53.366;-1.498;2022-11-20T00:59:36;99538.31;;;5.75;100.00
41898;BME280;27576;53.366;-1.498;2022-11-20T01:02:01;99515.91;;;5.70;100.00
41898;BME280;27576;53.366;-1.498;2022-11-20T01:04:26;99500.38;;;5.62;100.00
41898;BME280;27576;53.366;-1.498;2022-11-20T01:06:52;99493.53;;;5.64;100.00
41898;BME280;27576;53.366;-1.498;2022-11-20T01:09:17;99524.69;;;5.81;100.00
41898;BME280;27576;53.366;-1.498;2022-11-20T01:11:44;99518.72;;;5.83;100.00
41898;BME280;27576;53.366;-1.498;2022-11-20T01:14:13;99493.75;;;5.76;100.00
41898;BME280;27576;53.366;-1.498;2022-11-20T01:16:42;99501.63;;;5.85;100.00
41898;BME280;27576;53.366;-1.498;2022-11-20T01:19:11;99485.09;;;5.71;100.00
41898;BME280;27576;53.366;-1.498;2022-11-20T01:21:39;99500.81;;;5.86;100.00
41898;BME280;27576;53.366;-1.498;2022-11-20T01:24:07;99478.38;;;5.79;100.00
41898;BME280;27576;53.366;-1.498;2022-11-20T01:26:35;99491.38;;;5.87;100.00
41898;BME280;27576;53.366;-1.498;2022-11-20T01:29:01;99479.19;;;5.77;100.00
41898;BME280;27576;53.366;-1.498;2022-11-20T01:31:34;99468.91;;;5.77;100.00
41898;BME280;27576;53.366;-1.498;2022-11-20T01:34:09;99455.13;;;5.70;100.00
41898;BME280;27576;53.366;-1.498;2022-11-20T01:36:36;99476.75;;;5.84;100.00
41898;BME280;27576;53.366;-1.498;2022-11-20T01:39:17;99433.56;;;5.63;100.00
41898;BME280;27576;53.366;-1.498;2022-11-20T01:41:43;99460.47;;;5.82;100.00
41898;BME280;27576;53.366;-1.498;2022-11-20T01:47:36;99455.97;;;5.71;100.00
41898;BME280;27576;53.366;-1.498;2022-11-20T01:50:26;99452.63;;;5.76;100.00
41898;BME280;27576;53.366;-1.498;2022-11-20T01:52:57;99449.19;;;5.74;100.00
41898;BME280;27576;53.366;-1.498;2022-11-20T01:55:29;99431.88;;;5.64;100.00
41898;BME280;27576;53.366;-1.498;2022-11-20T01:57:56;99435.34;;;5.66;100.00
41898;BME280;27576;53.366;-1.498;2022-11-20T02:00:21;99392.19;;;5.47;100.00
41898;BME280;27576;53.366;-1.498;2022-11-20T02:02:58;99424.94;;;5.61;100.00
41898;BME280;27576;53.366;-1.498;2022-11-20T02:05:35;99396.44;;;5.46;100.00
41898;BME280;27576;53.366;-1.498;2022-11-20T02:08:03;99400.75;;;5.47;100.00
41898;BME280;27576;53.366;-1.498;2022-11-20T02:10:29;99398.97;;;5.45;100.00
41898;BME280;27576;53.366;-1.498;2022-11-20T02:12:55;99386.97;;;5.44;100.00
41898;BME280;27576;53.366;-1.498;2022-11-20T02:15:40;99392.97;;;5.44;100.00
41898;BME280;27576;53.366;-1.498;2022-11-20T02:18:05;99387.78;;;5.41;100.00
41898;BME280;27576;53.366;-1.498;2022-11-20T02:20:31;99413.72;;;5.55;100.00
41898;BME280;27576;53.366;-1.498;2022-11-20T02:23:04;99414.72;;;5.63;100.00
41898;BME280;27576;53.366;-1.498;2022-11-20T02:25:34;99399.31;;;5.63;100.00
41898;BME280;27576;53.366;-1.498;2022-11-20T02:28:00;99401.03;;;5.64;100.00
41898;BME280;27576;53.366;-1.498;2022-11-20T02:30:26;99376.97;;;5.60;100.00
41898;BME280;27576;53.366;-1.498;2022-11-20T02:32:51;99382.97;;;5.61;100.00
41898;BME280;27576;53.366;-1.498;2022-11-20T02:37:48;99376.97;;;5.60;100.00
41898;BME280;27576;53.366;-1.498;2022-11-20T02:40:15;99374.34;;;5.57;100.00
41898;BME280;27576;53.366;-1.498;2022-11-20T02:42:41;99377.81;;;5.59;100.00
41898;BME280;27576;53.366;-1.498;2022-11-20T02:45:07;99342.41;;;5.41;100.00
41898;BME280;27576;53.366;-1.498;2022-11-20T02:47:32;99358.06;;;5.57;100.00
41898;BME280;27576;53.366;-1.498;2022-11-20T02:49:59;99359.78;;;5.58;100.00
41898;BME280;27576;53.366;-1.498;2022-11-20T02:52:25;99349.50;;;5.58;100.00
41898;BME280;27576;53.366;-1.498;2022-11-20T02:54:50;99314.94;;;5.37;100.00
41898;BME280;27576;53.366;-1.498;2022-11-20T02:57:16;99321.84;;;5.41;100.00
41898;BME280;27576;53.366;-1.498;2022-11-20T02:59:41;99310.75;;;5.43;100.00
41898;BME280;27576;53.366;-1.498;2022-11-20T03:02:07;99330.59;;;5.51;100.00
41898;BME280;27576;53.366;-1.498;2022-11-20T03:04:32;99331.53;;;5.58;100.00
41898;BME280;27576;53.366;-1.498;2022-11-20T03:06:57;99306.53;;;5.48;100.00
41898;BME280;27576;53.366;-1.498;2022-11-20T03:09:23;99291.88;;;5.40;100.00
41898;BME280;27576;53.366;-1.498;2022-11-20T03:11:48;99304.78;;;5.44;100.00
41898;BME280;27576;53.366;-1.498;2022-11-20T03:14:13;99291.03;;;5.41;100.00
41898;BME280;27576;53.366;-1.498;2022-11-20T03:16:39;99266.00;;;5.28;100.00
41898;BME280;27576;53.366;-1.498;2022-11-20T03:19:05;99292.84;;;5.49;100.00
41898;BME280;27576;53.366;-1.498;2022-11-20T03:21:33;99303.25;;;5.56;100.00
41898;BME280;27576;53.366;-1.498;2022-11-20T03:23:58;99292.09;;;5.56;100.00
41898;BME280;27576;53.366;-1.498;2022-11-20T03:26:25;99281.72;;;5.50;100.00
41898;BME280;27576;53.366;-1.498;2022-11-20T03:28:55;99267.91;;;5.41;100.00
41898;BME280;27576;53.366;-1.498;2022-11-20T03:31:24;99286.06;;;5.52;100.00
41898;BME280;27576;53.366;-1.498;2022-11-20T03:33:50;99276.63;;;5.53;100.00
41898;BME280;27576;53.366;-1.498;2022-11-20T03:36:18;99274.91;;;5.52;100.00
41898;BME280;27576;53.366;-1.498;2022-11-20T03:38:44;99262.00;;;5.47;100.00
41898;BME280;27576;53.366;-1.498;2022-11-20T03:41:12;99257.78;;;5.51;100.00
41898;BME280;27576;53.366;-1.498;2022-11-20T03:43:38;99254.38;;;5.52;100.00
41898;BME280;27576;53.366;-1.498;2022-11-20T03:46:03;99241.50;;;5.52;100.00
41898;BME280;27576;53.366;-1.498;2022-11-20T03:48:29;99231.22;;;5.50;100.00
41898;BME280;27576;53.366;-1.498;2022-11-20T03:51:12;99214.75;;;5.37;100.00
41898;BME280;27576;53.366;-1.498;2022-11-20T03:53:40;99157.91;;;5.11;100.00
41898;BME280;27576;53.366;-1.498;2022-11-20T03:56:06;99214.91;;;5.50;100.00
41898;BME280;27576;53.366;-1.498;2022-11-20T03:58:32;99176.97;;;5.30;100.00
41898;BME280;27576;53.366;-1.498;2022-11-20T04:00:58;99201.16;;;5.46;100.00
41898;BME280;27576;53.366;-1.498;2022-11-20T04:03:28;99189.97;;;5.41;100.00
41898;BME280;27576;53.366;-1.498;2022-11-20T04:05:54;99204.63;;;5.48;100.00
41898;BME280;27576;53.366;-1.498;2022-11-20T04:08:19;99188.19;;;5.35;100.00
41898;BME280;27576;53.366;-1.498;2022-11-20T04:10:44;99177.88;;;5.32;100.00
41898;BME280;27576;53.366;-1.498;2022-11-20T04:13:10;99192.53;;;5.39;100.00
41898;BME280;27576;53.366;-1.498;2022-11-20T04:15:35;99182.19;;;5.35;100.00
41898;BME280;27576;53.366;-1.498;2022-11-20T04:18:00;99171.00;;;5.31;100.00
41898;BME280;27576;53.366;-1.498;2022-11-20T04:20:26;99183.91;;;5.36;100.00
41898;BME280;27576;53.366;-1.498;2022-11-20T04:22:53;99170.97;;;5.28;100.00
41898;BME280;27576;53.366;-1.498;2022-11-20T04:25:19;99183.13;;;5.41;100.00
41898;BME280;27576;53.366;-1.498;2022-11-20T04:27:44;99154.66;;;5.25;100.00
41898;BME280;27576;53.366;-1.498;2022-11-20T04:30:10;99174.50;;;5.36;100.00
41898;BME280;27576;53.366;-1.498;2022-11-20T04:32:36;99100.28;;;4.92;100.00
41898;BME280;27576;53.366;-1.498;2022-11-20T04:35:01;99148.59;;;5.21;100.00
41898;BME280;27576;53.366;-1.498;2022-11-20T04:37:27;99154.63;;;5.23;100.00
41898;BME280;27576;53.366;-1.498;2022-11-20T04:39:52;99147.69;;;5.17;100.00
41898;BME280;27576;53.366;-1.498;2022-11-20T04:42:17;99153.78;;;5.24;100.00
41898;BME280;27576;53.366;-1.498;2022-11-20T04:44:55;99148.53;;;5.16;100.00
41898;BME280;27576;53.366;-1.498;2022-11-20T04:47:21;99161.59;;;5.32;100.00
41898;BME280;27576;53.366;-1.498;2022-11-20T04:49:46;99171.00;;;5.31;100.00
41898;BME280;27576;53.366;-1.498;2022-11-20T04:52:12;99171.00;;;5.31;100.00
41898;BME280;27576;53.366;-1.498;2022-11-20T04:54:37;99132.13;;;5.07;100.00
41898;BME280;27576;53.366;-1.498;2022-11-20T04:57:02;99126.13;;;5.05;100.00
41898;BME280;27576;53.366;-1.498;2022-11-20T04:59:28;99120.19;;;5.07;100.00
41898;BME280;27576;53.366;-1.498;2022-11-20T05:01:53;99123.66;;;5.14;100.00
41898;BME280;27576;53.366;-1.498;2022-11-20T05:04:19;99154.69;;;5.28;100.00
41898;BME280;27576;53.366;-1.498;2022-11-20T05:06:44;99169.25;;;5.27;100.00
41898;BME280;27576;53.366;-1.498;2022-11-20T05:09:11;99130.47;;;5.09;100.00
41898;BME280;27576;53.366;-1.498;2022-11-20T05:11:36;99145.16;;;5.19;100.00
41898;BME280;27576;53.366;-1.498;2022-11-20T05:14:02;99118.34;;;5.00;100.00
41898;BME280;27576;53.366;-1.498;2022-11-20T05:16:27;99137.31;;;5.10;100.00
41898;BME280;27576;53.366;-1.498;2022-11-20T05:18:54;99153.69;;;5.18;100.00
41898;BME280;27576;53.366;-1.498;2022-11-20T05:21:20;99165.81;;;5.27;100.00
41898;BME280;27576;53.366;-1.498;2022-11-20T05:23:46;99157.16;;;5.20;100.00
41898;BME280;27576;53.366;-1.498;2022-11-20T05:26:17;99145.00;;;5.10;100.00
41898;BME280;27576;53.366;-1.498;2022-11-20T05:28:43;99160.69;;;5.27;100.00
41898;BME280;27576;53.366;-1.498;2022-11-20T05:31:28;99088.28;;;4.91;100.00
41898;BME280;27576;53.366;-1.498;2022-11-20T05:33:54;99163.25;;;5.27;100.00
41898;BME280;27576;53.366;-1.498;2022-11-20T05:36:20;99157.22;;;5.26;100.00
41898;BME280;27576;53.366;-1.498;2022-11-20T05:38:46;99143.41;;;5.18;100.00
41898;BME280;27576;53.366;-1.498;2022-11-20T05:41:16;99130.66;;;5.23;100.00
41898;BME280;27576;53.366;-1.498;2022-11-20T05:43:43;99135.81;;;5.24;100.00
41898;BME280;27576;53.366;-1.498;2022-11-20T05:46:12;99125.59;;;5.27;100.00
41898;BME280;27576;53.366;-1.498;2022-11-20T05:48:39;99110.94;;;5.20;100.00
41898;BME280;27576;53.366;-1.498;2022-11-20T05:51:08;99115.31;;;5.27;100.00
41898;BME280;27576;53.366;-1.498;2022-11-20T05:53:36;99105.84;;;5.23;100.00
41898;BME280;27576;53.366;-1.498;2022-11-20T05:56:08;99102.41;;;5.23;100.00
41898;BME280;27576;53.366;-1.498;2022-11-20T05:58:35;99079.16;;;5.13;100.00
41898;BME280;27576;53.366;-1.498;2022-11-20T06:03:32;99105.94;;;5.32;100.00
41898;BME280;27576;53.366;-1.498;2022-11-20T06:06:02;99076.63;;;5.16;100.00
41898;BME280;27576;53.366;-1.498;2022-11-20T06:08:28;99094.81;;;5.33;100.00
41898;BME280;27576;53.366;-1.498;2022-11-20T06:10:53;99096.59;;;5.36;100.00
41898;BME280;27576;53.366;-1.498;2022-11-20T06:13:19;99074.19;;;5.24;100.00
41898;BME280;27576;53.366;-1.498;2022-11-20T06:15:51;99054.38;;;5.17;100.00
41898;BME280;27576;53.366;-1.498;2022-11-20T06:18:17;99046.69;;;5.17;100.00
41898;BME280;27576;53.366;-1.498;2022-11-20T06:20:43;99088.88;;;5.37;100.00
41898;BME280;27576;53.366;-1.498;2022-11-20T06:23:09;99045.78;;;5.12;100.00
41898;BME280;27576;53.366;-1.498;2022-11-20T06:25:38;99057.88;;;5.22;100.00
41898;BME280;27576;53.366;-1.498;2022-11-20T06:28:03;99075.19;;;5.35;100.00
41898;BME280;27576;53.366;-1.498;2022-11-20T06:30:29;99051.88;;;5.22;100.00
41898;BME280;27576;53.366;-1.498;2022-11-20T06:32:54;99059.66;;;5.28;100.00
41898;BME280;27576;53.366;-1.498;2022-11-20T06:35:19;99059.63;;;5.23;100.00
41898;BME280;27576;53.366;-1.498;2022-11-20T06:37:45;99059.63;;;5.26;100.00
41898;BME280;27576;53.366;-1.498;2022-11-20T06:40:11;99059.56;;;5.22;100.00
41898;BME280;27576;53.366;-1.498;2022-11-20T06:42:36;99065.72;;;5.33;100.00
41898;BME280;27576;53.366;-1.498;2022-11-20T06:45:02;99080.34;;;5.38;100.00
41898;BME280;27576;53.366;-1.498;2022-11-20T06:47:27;99070.00;;;5.34;100.00
41898;BME280;27576;53.366;-1.498;2022-11-20T06:49:52;99063.09;;;5.28;100.00
41898;BME280;27576;53.366;-1.498;2022-11-20T06:52:18;99087.25;;;5.43;100.00
41898;BME280;27576;53.366;-1.498;2022-11-20T06:54:44;99064.03;;;5.36;100.00
41898;BME280;27576;53.366;-1.498;2022-11-20T06:57:09;99071.84;;;5.46;100.00
41898;BME280;27576;53.366;-1.498;2022-11-20T06:59:34;99046.03;;;5.32;100.00
41898;BME280;27576;53.366;-1.498;2022-11-20T07:02:00;99070.13;;;5.46;100.00
41898;BME280;27576;53.366;-1.498;2022-11-20T07:04:25;99077.84;;;5.45;100.00
41898;BME280;27576;53.366;-1.498;2022-11-20T07:06:50;99040.72;;;5.20;100.00
41898;BME280;27576;53.366;-1.498;2022-11-20T07:09:16;99052.72;;;5.21;100.00
41898;BME280;27576;53.366;-1.498;2022-11-20T07:11:41;99062.16;;;5.22;100.00
41898;BME280;27576;53.366;-1.498;2022-11-20T07:14:06;99064.66;;;5.17;100.00
41898;BME280;27576;53.366;-1.498;2022-11-20T07:16:32;99058.63;;;5.12;100.00
41898;BME280;27576;53.366;-1.498;2022-11-20T07:18:57;99093.84;;;5.24;100.00
41898;BME280;27576;53.366;-1.498;2022-11-20T07:21:23;99088.63;;;5.16;100.00
41898;BME280;27576;53.366;-1.498;2022-11-20T07:23:48;99094.63;;;5.16;100.00
41898;BME280;27576;53.366;-1.498;2022-11-20T07:26:13;99053.22;;;4.93;100.00
41898;BME280;27576;53.366;-1.498;2022-11-20T07:28:39;99088.47;;;5.05;100.00
41898;BME280;27576;53.366;-1.498;2022-11-20T07:31:04;99098.84;;;5.13;100.00
41898;BME280;27576;53.366;-1.498;2022-11-20T07:33:32;99102.41;;;5.23;100.00
41898;BME280;27576;53.366;-1.498;2022-11-20T07:36:01;99085.09;;;5.09;100.00
41898;BME280;27576;53.366;-1.498;2022-11-20T07:38:26;99102.44;;;5.26;100.00
41898;BME280;27576;53.366;-1.498;2022-11-20T07:40:56;99106.75;;;5.27;100.00
41898;BME280;27576;53.366;-1.498;2022-11-20T07:43:23;99107.59;;;5.27;100.00
41898;BME280;27576;53.366;-1.498;2022-11-20T07:45:48;99061.94;;;5.03;100.00
41898;BME280;27576;53.366;-1.498;2022-11-20T07:48:13;99075.63;;;5.07;100.00
41898;BME280;27576;53.366;-1.498;2022-11-20T07:50:39;99112.69;;;5.26;100.00
41898;BME280;27576;53.366;-1.498;2022-11-20T07:53:05;99112.69;;;5.24;100.00
41898;BME280;27576;53.366;-1.498;2022-11-20T07:55:30;99114.31;;;5.16;100.00
41898;BME280;27576;53.366;-1.498;2022-11-20T07:57:56;99128.88;;;5.18;100.00
41898;BME280;27576;53.366;-1.498;2022-11-20T08:00:22;99152.03;;;5.20;100.00
41898;BME280;27576;53.366;-1.498;2022-11-20T08:02:47;99145.16;;;5.19;100.00
41898;BME280;27576;53.366;-1.498;2022-11-20T08:05:13;99120.06;;;5.00;100.00
41898;BME280;27576;53.366;-1.498;2022-11-20T08:07:39;99155.44;;;5.19;100.00
41898;BME280;27576;53.366;-1.498;2022-11-20T08:10:07;99152.88;;;5.21;100.00
41898;BME280;27576;53.366;-1.498;2022-11-20T08:12:33;99148.66;;;5.24;100.00
41898;BME280;27576;53.366;-1.498;2022-11-20T08:15:17;99153.84;;;5.27;100.00
41898;BME280;27576;53.366;-1.498;2022-11-20T08:17:42;99144.31;;;5.22;100.00
41898;BME280;27576;53.366;-1.498;2022-11-20T08:20:08;99159.88;;;5.31;100.00
41898;BME280;27576;53.366;-1.498;2022-11-20T08:22:33;99141.72;;;5.18;100.00
41898;BME280;27576;53.366;-1.498;2022-11-20T08:24:59;99164.28;;;5.39;100.00
41898;BME280;27576;53.366;-1.498;2022-11-20T08:27:24;99158.44;;;5.51;100.00
41898;BME280;27576;53.366;-1.498;2022-11-20T08:29:49;99124.88;;;5.40;100.00
41898;BME280;27576;53.366;-1.498;2022-11-20T08:32:15;99136.22;;;5.55;100.00
41898;BME280;27576;53.366;-1.498;2022-11-20T08:34:40;99143.16;;;5.62;100.00
41898;BME280;27576;53.366;-1.498;2022-11-20T08:37:06;99150.88;;;5.65;100.00
41898;BME280;27576;53.366;-1.498;2022-11-20T08:39:31;99141.44;;;5.62;100.00
41898;BME280;27576;53.366;-1.498;2022-11-20T08:41:56;99120.81;;;5.56;100.00
41898;BME280;27576;53.366;-1.498;2022-11-20T08:44:22;99135.50;;;5.68;100.00
41898;BME280;27576;53.366;-1.498;2022-11-20T08:46:47;99163.16;;;5.87;100.00
41898;BME280;27576;53.366;-1.498;2022-11-20T08:49:13;99172.63;;;5.90;100.00
41898;BME280;27576;53.366;-1.498;2022-11-20T08:51:39;99170.13;;;5.95;100.00
41898;BME280;27576;53.366;-1.498;2022-11-20T08:54:06;99169.19;;;5.89;100.00
41898;BME280;27576;53.366;-1.498;2022-11-20T08:56:31;99183.09;;;6.04;100.00
41898;BME280;27576;53.366;-1.498;2022-11-20T08:58:57;99186.56;;;6.07;100.00
41898;BME280;27576;53.366;-1.498;2022-11-20T09:01:25;99145.16;;;5.87;100.00
41898;BME280;27576;53.366;-1.498;2022-11-20T09:03:51;99190.06;;;6.14;100.00
41898;BME280;27576;53.366;-1.498;2022-11-20T09:06:16;99163.41;;;6.09;100.00
41898;BME280;27576;53.366;-1.498;2022-11-20T09:08:42;99167.81;;;6.21;100.00
41898;BME280;27576;53.366;-1.498;2022-11-20T09:11:08;99169.59;;;6.25;100.00
41898;BME280;27576;53.366;-1.498;2022-11-20T09:13:35;99174.81;;;6.29;100.00
41898;BME280;27576;53.366;-1.498;2022-11-20T09:16:04;99180.84;;;6.33;100.00
41898;BME280;27576;53.366;-1.498;2022-11-20T09:18:31;99186.84;;;6.35;100.00
41898;BME280;27576;53.366;-1.498;2022-11-20T09:21:02;99187.75;;;6.38;100.00
41898;BME280;27576;53.366;-1.498;2022-11-20T09:23:31;99171.34;;;6.26;100.00
41898;BME280;27576;53.366;-1.498;2022-11-20T09:25:57;99180.00;;;6.34;100.00
41898;BME280;27576;53.366;-1.498;2022-11-20T09:28:25;99192.94;;;6.42;100.00
41898;BME280;27576;53.366;-1.498;2022-11-20T09:30:50;99191.25;;;6.45;100.00
41898;BME280;27576;53.366;-1.498;2022-11-20T09:33:16;99186.16;;;6.50;100.00
41898;BME280;27576;53.366;-1.498;2022-11-20T09:35:43;99171.50;;;6.44;100.00
41898;BME280;27576;53.366;-1.498;2022-11-20T09:38:09;99192.22;;;6.56;100.00
41898;BME280;27576;53.366;-1.498;2022-11-20T09:40:39;99200.81;;;6.60;100.00
41898;BME280;27576;53.366;-1.498;2022-11-20T09:54:37;99185.50;;;6.72;100.00
41898;BME280;27576;53.366;-1.498;2022-11-20T09:57:17;99177.78;;;6.72;100.00
41898;BME280;27576;53.366;-1.498;2022-11-20T09:59:49;99170.88;;;6.68;100.00
41898;BME280;27576;53.366;-1.498;2022-11-20T10:02:25;99180.34;;;6.75;100.00
41898;BME280;27576;53.366;-1.498;2022-11-20T10:05:04;99156.25;;;6.66;100.00
41898;BME280;27576;53.366;-1.498;2022-11-20T10:10:03;99177.84;;;6.81;100.00
41898;BME280;27576;53.366;-1.498;2022-11-20T10:15:22;99177.03;;;6.92;100.00
41898;BME280;27576;53.366;-1.498;2022-11-20T10:20:46;99166.00;;;7.05;100.00
41898;BME280;27576;53.366;-1.498;2022-11-20T10:23:50;99155.66;;;6.96;100.00
41898;BME280;27576;53.366;-1.498;2022-11-20T10:28:52;99183.16;;;7.00;100.00
41898;BME280;27576;53.366;-1.498;2022-11-20T10:31:45;99143.47;;;6.79;100.00
41898;BME280;27576;53.366;-1.498;2022-11-20T10:34:38;99155.53;;;6.80;100.00
41898;BME280;27576;53.366;-1.498;2022-11-20T10:37:14;99178.78;;;6.93;100.00
41898;BME280;27576;53.366;-1.498;2022-11-20T10:39:56;99176.19;;;6.91;100.00
41898;BME280;27576;53.366;-1.498;2022-11-20T10:42:44;99155.44;;;6.71;100.00
41898;BME280;27576;53.366;-1.498;2022-11-20T10:47:55;99178.72;;;6.85;100.00
41898;BME280;27576;53.366;-1.498;2022-11-20T10:50:22;99174.47;;;6.88;100.00
41898;BME280;27576;53.366;-1.498;2022-11-20T10:55:30;99159.84;;;6.87;100.00
41898;BME280;27576;53.366;-1.498;2022-11-20T10:58:09;99167.66;;;6.97;100.00
41898;BME280;27576;53.366;-1.498;2022-11-20T11:00:35;99160.78;;;6.93;100.00
41898;BME280;27576;53.366;-1.498;2022-11-20T11:03:00;99171.13;;;7.03;100.00
41898;BME280;27576;53.366;-1.498;2022-11-20T11:05:46;99138.44;;;6.95;100.00
41898;BME280;27576;53.366;-1.498;2022-11-20T11:08:17;99160.00;;;7.06;100.00
41898;BME280;27576;53.366;-1.498;2022-11-20T11:10:53;99159.19;;;7.11;100.00
41898;BME280;27576;53.366;-1.498;2022-11-20T11:13:25;99157.47;;;7.12;100.00
41898;BME280;27576;53.366;-1.498;2022-11-20T11:15:51;99173.75;;;7.11;100.00
41898;BME280;27576;53.366;-1.498;2022-11-20T11:20:54;99158.28;;;7.05;100.00
41898;BME280;27576;53.366;-1.498;2022-11-20T11:23:40;99160.84;;;7.05;100.00
41898;BME280;27576;53.366;-1.498;2022-11-20T11:26:18;99152.25;;;7.03;100.00
41898;BME280;27576;53.366;-1.498;2022-11-20T11:29:01;99118.66;;;6.84;100.00
41898;BME280;27576;53.366;-1.498;2022-11-20T11:31:30;99110.91;;;6.81;100.00
41898;BME280;27576;53.366;-1.498;2022-11-20T11:34:16;99107.44;;;6.79;100.00
41898;BME280;27576;53.366;-1.498;2022-11-20T11:36:48;99148.81;;;7.01;100.00
41898;BME280;27576;53.366;-1.498;2022-11-20T11:39:18;99141.94;;;7.00;100.00
41898;BME280;27576;53.366;-1.498;2022-11-20T11:41:44;99141.06;;;6.98;100.00
41898;BME280;27576;53.366;-1.498;2022-11-20T11:44:20;99152.25;;;7.01;100.00
41898;BME280;27576;53.366;-1.498;2022-11-20T11:47:05;99141.97;;;7.04;100.00
41898;BME280;27576;53.366;-1.498;2022-11-20T11:49:33;99122.19;;;7.02;100.00
41898;BME280;27576;53.366;-1.498;2022-11-20T11:52:13;99109.25;;;6.94;100.00
41898;BME280;27576;53.366;-1.498;2022-11-20T11:54:53;99105.00;;;6.96;100.00
41898;BME280;27576;53.366;-1.498;2022-11-20T12:00:09;99117.94;;;7.10;100.00
41898;BME280;27576;53.366;-1.498;2022-11-20T12:05:13;99102.50;;;7.10;100.00
41898;BME280;27576;53.366;-1.498;2022-11-20T12:07:56;99108.53;;;7.18;100.00
41898;BME280;27576;53.366;-1.498;2022-11-20T12:13:02;99131.03;;;7.48;100.00
41898;BME280;27576;53.366;-1.498;2022-11-20T12:15:30;99143.94;;;7.54;100.00
41898;BME280;27576;53.366;-1.498;2022-11-20T12:17:56;99141.38;;;7.57;100.00
41898;BME280;27576;53.366;-1.498;2022-11-20T12:20:30;99138.81;;;7.60;100.00
41898;BME280;27576;53.366;-1.498;2022-11-20T12:23:19;99129.41;;;7.62;100.00
41898;BME280;27576;53.366;-1.498;2022-11-20T12:25:48;99106.16;;;7.61;100.00
41898;BME280;27576;53.366;-1.498;2022-11-20T12:39:35;99129.38;;;7.66;100.00
41898;BME280;27576;53.366;-1.498;2022-11-20T12:42:35;99147.47;;;7.76;100.00
41898;BME280;27576;53.366;-1.498;2022-11-20T12:45:35;99146.63;;;7.74;100.00
41898;BME280;27576;53.366;-1.498;2022-11-20T12:48:55;99132.91;;;7.78;100.00
41898;BME280;27576;53.366;-1.498;2022-11-20T12:51:43;99126.91;;;7.95;100.00
41898;BME280;27576;53.366;-1.498;2022-11-20T12:57:00;99137.31;;;8.27;100.00
41898;BME280;27576;53.366;-1.498;2022-11-20T13:02:30;99128.78;;;8.54;100.00
41898;BME280;27576;53.366;-1.498;2022-11-20T13:07:43;99108.09;;;8.72;100.00
41898;BME280;27576;53.366;-1.498;2022-11-20T13:10:27;99116.72;;;8.74;100.00
41898;BME280;27576;53.366;-1.498;2022-11-20T13:13:04;99133.06;;;8.84;100.00
41898;BME280;27576;53.366;-1.498;2022-11-20T13:15:50;99144.25;;;8.78;100.00
41898;BME280;27576;53.366;-1.498;2022-11-20T13:18:19;99128.75;;;8.60;100.00
41898;BME280;27576;53.366;-1.498;2022-11-20T13:20:46;99145.13;;;8.65;100.00
41898;BME280;27576;53.366;-1.498;2022-11-20T13:23:23;99133.94;;;8.51;100.00
41898;BME280;27576;53.366;-1.498;2022-11-20T13:25:48;99119.25;;;8.34;100.00
41898;BME280;27576;53.366;-1.498;2022-11-20T13:30:53;99139.94;;;8.42;100.00
41898;BME280;27576;53.366;-1.498;2022-11-20T13:33:33;99133.91;;;8.39;100.00
41898;BME280;27576;53.366;-1.498;2022-11-20T13:36:20;99110.66;;;8.22;100.00
41898;BME280;27576;53.366;-1.498;2022-11-20T13:38:49;99133.00;;;8.36;100.00
41898;BME280;27576;53.366;-1.498;2022-11-20T13:41:34;99131.34;;;8.37;100.00
41898;BME280;27576;53.366;-1.498;2022-11-20T13:46:52;99115.78;;;8.20;100.00
41898;BME280;27576;53.366;-1.498;2022-11-20T13:49:18;99153.66;;;8.36;100.00
41898;BME280;27576;53.366;-1.498;2022-11-20T13:51:48;99143.31;;;8.21;100.00
41898;BME280;27576;53.366;-1.498;2022-11-20T13:57:14;99157.06;;;8.20;100.00
41898;BME280;27576;53.366;-1.498;2022-11-20T13:59:57;99156.22;;;8.15;100.00
41898;BME280;27576;53.366;-1.498;2022-11-20T14:02:26;99132.06;;;7.93;100.00
41898;BME280;27576;53.366;-1.498;2022-11-20T14:04:54;99160.47;;;8.05;100.00
41898;BME280;27576;53.366;-1.498;2022-11-20T14:07:27;99153.56;;;7.97;100.00
41898;BME280;27576;53.366;-1.498;2022-11-20T14:09:57;99154.41;;;7.90;100.00
41898;BME280;27576;53.366;-1.498;2022-11-20T14:12:28;99144.09;;;7.86;100.00
41898;BME280;27576;53.366;-1.498;2022-11-20T14:14:54;99137.22;;;7.82;100.00